Aviation Digital Data Service (ADDS)

Output produced by METARs form (0516 UTC 27 September 2016)
found at http://aviationweather.gov/adds/metars/
 
KRME 270214Z 2702/2724 18005KT P6SM -SHRA OVC025 
     TEMPO 2702/2705 3SM SHRA BR OVC015 
     FM270700 VRB03KT P6SM BKN025 
     FM271400 24007KT P6SM SCT040